createdAt,value
2023-03-18T00:03:26.877Z,100790.13
2023-03-18T00:06:37.204Z,100790.16
2023-03-18T00:14:17.084Z,100790.28
2023-03-18T00:19:50.257Z,100792.88
2023-03-18T00:22:33.828Z,100802.56
2023-03-18T00:32:42.653Z,100805.28
2023-03-18T00:51:07.714Z,100799.44
2023-03-18T01:00:58.722Z,100805.50
2023-03-18T01:11:26.440Z,100808.00
2023-03-18T01:26:18.954Z,100818.00
2023-03-18T01:28:50.981Z,100825.91
2023-03-18T01:31:24.422Z,100827.69
2023-03-18T01:37:46.860Z,100819.09
2023-03-18T01:40:20.903Z,100810.50
2023-03-18T01:43:21.799Z,100814.94
2023-03-18T01:45:59.607Z,100827.19
2023-03-18T01:49:00.264Z,100832.44
2023-03-18T01:52:58.639Z,100823.69
2023-03-18T01:55:47.836Z,100817.69
2023-03-18T01:58:26.598Z,100814.31
2023-03-18T02:01:13.680Z,100819.56
2023-03-18T02:06:18.118Z,100816.16
2023-03-18T02:08:50.890Z,100812.69
2023-03-18T02:11:28.102Z,100814.47
2023-03-18T02:14:02.680Z,100806.66
2023-03-18T02:20:53.648Z,100797.00
2023-03-18T02:23:54.903Z,100800.47
2023-03-18T02:26:53.475Z,100797.00
2023-03-18T02:29:31.771Z,100794.31
2023-03-18T02:32:06.356Z,100798.63
2023-03-18T02:34:44.333Z,100791.63
2023-03-18T02:37:16.433Z,100783.78
2023-03-18T02:39:53.675Z,100796.88
2023-03-18T02:42:30.869Z,100793.38
2023-03-18T02:45:46.727Z,100794.28
2023-03-18T02:48:22.212Z,100809.06
2023-03-18T02:50:59.630Z,100807.38
2023-03-18T02:53:42.280Z,100810.91
2023-03-18T02:56:15.050Z,100815.25
2023-03-18T02:58:52.496Z,100817.84
2023-03-18T03:01:24.898Z,100816.91
2023-03-18T03:03:56.887Z,100817.78
2023-03-18T03:06:29.344Z,100814.31
2023-03-18T03:09:02.880Z,100821.22
2023-03-18T03:11:36.561Z,100822.06
2023-03-18T03:14:09.829Z,100839.47
2023-03-18T03:16:42.472Z,100834.25
2023-03-18T03:19:37.422Z,100826.44
2023-03-18T03:22:35.916Z,100814.16
2023-03-18T03:25:19.510Z,100817.63
2023-03-18T03:27:53.577Z,100813.25
2023-03-18T03:31:05.297Z,100819.38
2023-03-18T03:33:43.802Z,100823.78
2023-03-18T03:36:17.920Z,100823.75
2023-03-18T03:38:50.666Z,100828.09
2023-03-18T03:41:22.885Z,100836.81
2023-03-18T03:43:55.003Z,100833.34
2023-03-18T03:53:57.643Z,100848.13
2023-03-18T03:56:31.493Z,100842.00
2023-03-18T03:59:04.966Z,100847.22
2023-03-18T04:01:36.968Z,100850.75
2023-03-18T04:04:24.248Z,100854.22
2023-03-18T04:10:23.105Z,100853.38
2023-03-18T04:12:55.642Z,100849.00
2023-03-18T04:15:27.848Z,100849.88
2023-03-18T04:18:04.936Z,100849.91
2023-03-18T04:20:38.829Z,100850.72
2023-03-18T04:23:10.796Z,100851.59
2023-03-18T04:25:42.941Z,100848.91
2023-03-18T04:35:49.817Z,100861.19
2023-03-18T04:43:11.584Z,100863.81
2023-03-18T04:48:59.196Z,100874.38
2023-03-18T04:51:43.976Z,100876.13
2023-03-18T04:54:27.833Z,100883.09
2023-03-18T04:57:02.491Z,100877.84
2023-03-18T04:59:35.487Z,100888.28
2023-03-18T05:02:08.817Z,100884.81
2023-03-18T05:04:41.034Z,100883.06
2023-03-18T05:07:15.681Z,100878.69
2023-03-18T05:09:48.025Z,100876.94
2023-03-18T05:12:20.185Z,100873.47
2023-03-18T05:14:53.163Z,100877.00
2023-03-18T05:17:25.752Z,100883.94
2023-03-18T05:20:00.509Z,100882.25
2023-03-18T05:22:36.008Z,100889.22
2023-03-18T05:25:11.655Z,100890.16
2023-03-18T05:27:49.866Z,100897.13
2023-03-18T05:30:22.420Z,100901.53
2023-03-18T05:32:55.177Z,100892.81
2023-03-18T05:35:27.735Z,100887.59
2023-03-18T05:38:00.180Z,100879.72
2023-03-18T05:40:32.590Z,100887.56
2023-03-18T05:43:04.900Z,100884.00
2023-03-18T05:45:41.155Z,100878.75
2023-03-18T05:48:13.571Z,100878.78
2023-03-18T05:50:46.937Z,100879.66
2023-03-18T05:53:19.215Z,100890.97
2023-03-18T05:55:51.393Z,100904.09
2023-03-18T05:58:24.374Z,100908.44
2023-03-18T06:00:56.777Z,100914.47
2023-03-18T06:03:30.020Z,100913.56
2023-03-18T06:06:02.775Z,100919.69
2023-03-18T06:08:35.476Z,100920.56
2023-03-18T06:11:08.382Z,100924.03
2023-03-18T06:13:41.683Z,100920.53
2023-03-18T06:18:52.288Z,100925.78
2023-03-18T06:21:25.446Z,100929.25
2023-03-18T06:24:03.985Z,100937.13
2023-03-18T06:26:36.595Z,100935.38
2023-03-18T06:29:09.257Z,100934.53
2023-03-18T06:31:41.542Z,100933.63
2023-03-18T06:37:01.495Z,100946.69
2023-03-18T06:39:37.151Z,100951.03
2023-03-18T06:42:11.155Z,100948.47
2023-03-18T06:44:50.795Z,100951.94
2023-03-18T06:47:24.023Z,100960.69
2023-03-18T06:49:57.214Z,100962.41
2023-03-18T06:52:29.551Z,100968.53
2023-03-18T06:55:09.704Z,100973.78
2023-03-18T06:57:42.180Z,100974.75
2023-03-18T07:00:18.871Z,100977.47
2023-03-18T07:02:52.730Z,100969.63
2023-03-18T07:05:25.314Z,100971.38
2023-03-18T07:07:57.908Z,100974.81
2023-03-18T07:10:32.250Z,100975.66
2023-03-18T07:13:09.245Z,100991.38
2023-03-18T07:15:42.085Z,100996.56
2023-03-18T07:18:17.675Z,101000.88
2023-03-18T07:20:50.978Z,101002.56
2023-03-18T07:23:23.363Z,101001.69
2023-03-18T07:25:59.087Z,101008.63
2023-03-18T07:28:39.765Z,101011.16
2023-03-18T07:31:12.414Z,101008.41
2023-03-18T07:33:44.828Z,101017.94
2023-03-18T07:36:46.337Z,101019.66
2023-03-18T07:39:23.352Z,101024.88
2023-03-18T07:42:05.986Z,101027.50
2023-03-18T07:44:38.919Z,101026.63
2023-03-18T07:47:11.352Z,101036.22
2023-03-18T07:49:44.412Z,101043.19
2023-03-18T07:52:20.473Z,101043.22
2023-03-18T07:54:53.135Z,101044.94
2023-03-18T07:57:28.498Z,101042.38
2023-03-18T08:00:00.939Z,101037.97
2023-03-18T08:02:35.034Z,101039.69
2023-03-18T08:05:20.091Z,101042.28
2023-03-18T08:08:02.608Z,101046.69
2023-03-18T08:10:35.573Z,101051.00
2023-03-18T08:16:00.222Z,101057.88
2023-03-18T08:18:32.479Z,101061.31
2023-03-18T08:21:05.124Z,101062.00
2023-03-18T08:23:38.903Z,101067.16
2023-03-18T08:26:12.247Z,101078.47
2023-03-18T08:28:44.429Z,101078.44
2023-03-18T08:31:22.603Z,101085.41
2023-03-18T08:34:15.458Z,101083.72
2023-03-18T08:36:48.157Z,101082.81
2023-03-18T08:39:27.951Z,101081.91
2023-03-18T08:42:00.153Z,101082.81
2023-03-18T08:44:33.766Z,101096.75
2023-03-18T08:47:20.108Z,101094.19
2023-03-18T08:49:52.352Z,101097.59
2023-03-18T08:52:27.773Z,101100.09
2023-03-18T08:55:09.876Z,101107.09
2023-03-18T08:57:51.922Z,101099.41
2023-03-18T09:00:40.923Z,101096.78
2023-03-18T09:03:28.949Z,101102.91
2023-03-18T09:06:01.544Z,101102.06
2023-03-18T09:08:41.633Z,101112.53
2023-03-18T09:11:13.949Z,101109.94
2023-03-18T09:13:46.168Z,101118.69
2023-03-18T09:16:18.736Z,101112.56
2023-03-18T09:18:50.906Z,101108.00
2023-03-18T09:21:23.154Z,101107.88
2023-03-18T09:23:55.316Z,101112.19
2023-03-18T09:26:27.562Z,101119.78
2023-03-18T09:28:59.644Z,101114.38
2023-03-18T09:31:31.832Z,101117.50
2023-03-18T09:51:27.567Z,101119.00
2023-03-18T10:05:55.725Z,101138.88
2023-03-18T10:17:27.180Z,101137.56
2023-03-18T10:20:53.096Z,101137.47
2023-03-18T10:24:09.696Z,101141.59
2023-03-18T10:27:49.056Z,101142.06
2023-03-18T10:34:52.177Z,101150.31
2023-03-18T10:41:56.509Z,101178.75
2023-03-18T10:46:09.816Z,101170.38
2023-03-18T10:49:51.737Z,101164.72
2023-03-18T11:00:36.197Z,101169.97
2023-03-18T11:03:38.447Z,101156.44
2023-03-18T11:06:51.418Z,101158.53
2023-03-18T11:17:39.142Z,101167.19
2023-03-18T11:37:22.837Z,101168.53
2023-03-18T11:56:00.489Z,101175.03
2023-03-18T12:15:25.989Z,101167.97
2023-03-18T12:18:36.774Z,101164.47
2023-03-18T12:21:46.745Z,101165.50
2023-03-18T12:28:51.397Z,101169.16
2023-03-18T12:31:31.947Z,101173.09
2023-03-18T12:34:05.176Z,101178.50
2023-03-18T12:37:06.886Z,101174.34
2023-03-18T12:40:01.930Z,101161.91
2023-03-18T12:43:19.086Z,101165.59
2023-03-18T12:46:04.179Z,101165.94
2023-03-18T12:48:58.683Z,101160.59
2023-03-18T12:52:37.347Z,101172.28
2023-03-18T12:55:30.322Z,101174.16
2023-03-18T12:58:27.160Z,101165.88
2023-03-18T13:01:18.352Z,101163.03
2023-03-18T13:04:02.251Z,101158.63
2023-03-18T13:06:59.030Z,101171.41
2023-03-18T13:09:44.885Z,101156.66
2023-03-18T13:12:25.163Z,101159.19
2023-03-18T13:15:17.548Z,101156.69
2023-03-18T13:17:56.438Z,101150.28
2023-03-18T13:20:39.079Z,101151.13
2023-03-18T13:24:05.071Z,101152.47
2023-03-18T13:27:15.648Z,101157.41
2023-03-18T13:30:02.266Z,101153.69
2023-03-18T13:33:15.578Z,101159.25
2023-03-18T13:35:58.117Z,101153.69
2023-03-18T13:38:45.282Z,101160.25
2023-03-18T13:41:45.207Z,101159.44
2023-03-18T13:44:36.567Z,101155.06
2023-03-18T13:47:18.592Z,101155.13
2023-03-18T13:50:18.925Z,101146.66
2023-03-18T13:53:04.865Z,101141.78
2023-03-18T13:55:54.283Z,101147.91
2023-03-18T13:58:45.678Z,101141.63
2023-03-18T14:01:55.302Z,101139.38
2023-03-18T14:04:48.401Z,101135.88
2023-03-18T14:07:22.598Z,101138.47
2023-03-18T14:10:17.074Z,101134.81
2023-03-18T14:12:50.643Z,101130.22
2023-03-18T14:15:39.285Z,101134.06
2023-03-18T14:18:52.510Z,101137.75
2023-03-18T14:21:33.480Z,101141.84
2023-03-18T14:24:38.392Z,101135.69
2023-03-18T14:27:18.867Z,101136.50
2023-03-18T14:29:53.813Z,101145.25
2023-03-18T14:32:43.411Z,101146.28
2023-03-18T14:35:20.916Z,101143.03
2023-03-18T14:38:26.314Z,101142.38
2023-03-18T14:41:00.563Z,101140.59
2023-03-18T14:43:53.009Z,101152.38
2023-03-18T14:46:33.177Z,101142.13
2023-03-18T14:49:36.538Z,101142.34
2023-03-18T14:52:34.809Z,101139.63
2023-03-18T14:55:22.244Z,101140.84
2023-03-18T14:57:54.304Z,101139.16
2023-03-18T15:00:34.056Z,101135.53
2023-03-18T15:03:29.731Z,101139.94
2023-03-18T15:06:07.569Z,101134.34
2023-03-18T15:08:50.303Z,101136.63
2023-03-18T15:11:26.516Z,101139.91
2023-03-18T15:14:01.806Z,101139.16
2023-03-18T15:16:37.379Z,101127.03
2023-03-18T15:19:12.577Z,101133.44
2023-03-18T15:38:13.235Z,101131.03
2023-03-18T15:40:55.579Z,101131.75
2023-03-18T15:43:44.378Z,101127.41
2023-03-18T15:46:28.095Z,101124.78
2023-03-18T15:49:05.605Z,101127.88
2023-03-18T15:51:47.835Z,101126.50
2023-03-18T15:54:30.275Z,101129.06
2023-03-18T15:57:39.709Z,101123.69
2023-03-18T16:00:13.229Z,101123.53
2023-03-18T16:02:59.867Z,101121.88
2023-03-18T16:05:32.528Z,101128.84
2023-03-18T16:09:26.404Z,101127.34
2023-03-18T16:15:29.943Z,101130.41
2023-03-18T16:18:02.553Z,101126.19
2023-03-18T16:20:42.402Z,101132.22
2023-03-18T16:23:16.691Z,101125.28
2023-03-18T16:25:53.996Z,101128.06
2023-03-18T16:28:29.046Z,101132.72
2023-03-18T16:31:01.073Z,101139.94
2023-03-18T16:33:36.926Z,101140.91
2023-03-18T16:36:28.278Z,101142.84
2023-03-18T16:39:01.462Z,101146.63
2023-03-18T16:41:33.698Z,101149.38
2023-03-18T16:44:14.579Z,101147.72
2023-03-18T16:46:53.854Z,101155.78
2023-03-18T16:49:37.694Z,101149.78
2023-03-18T16:52:16.175Z,101150.75
2023-03-18T16:54:48.304Z,101157.97
2023-03-18T16:57:22.159Z,101158.19
2023-03-18T16:59:56.736Z,101155.63
2023-03-18T17:02:38.142Z,101164.59
2023-03-18T17:05:16.974Z,101169.94
2023-03-18T17:07:50.385Z,101166.47
2023-03-18T17:10:27.365Z,101167.44
2023-03-18T17:13:09.767Z,101169.31
2023-03-18T17:15:48.771Z,101171.13
2023-03-18T17:18:23.866Z,101168.59
2023-03-18T17:20:58.317Z,101175.78
2023-03-18T17:23:30.535Z,101173.28
2023-03-18T17:26:03.185Z,101172.53
2023-03-18T17:28:45.691Z,101169.97
2023-03-18T17:31:21.386Z,101167.41
2023-03-18T17:33:58.551Z,101175.41
2023-03-18T17:36:30.881Z,101176.38
2023-03-18T17:39:03.377Z,101178.22
2023-03-18T17:41:35.994Z,101179.22
2023-03-18T17:44:30.325Z,101187.22
2023-03-18T17:47:03.388Z,101184.72
2023-03-18T17:49:37.871Z,101190.13
2023-03-18T17:52:56.103Z,101194.66
2023-03-18T17:55:28.382Z,101192.13
2023-03-18T17:58:00.474Z,101193.91
2023-03-18T18:00:33.923Z,101200.94
2023-03-18T18:03:19.797Z,101203.63
2023-03-18T18:05:54.324Z,101205.41
2023-03-18T18:08:28.466Z,101204.47
2023-03-18T18:11:18.049Z,101217.50
2023-03-18T18:14:03.552Z,101213.94
2023-03-18T18:16:36.134Z,101217.38
2023-03-18T18:19:11.424Z,101216.44
2023-03-18T18:21:48.060Z,101217.34
2023-03-18T18:24:42.244Z,101221.69
2023-03-18T18:27:16.704Z,101206.84
2023-03-18T18:29:55.288Z,101214.75
2023-03-18T18:32:27.395Z,101215.63
2023-03-18T18:34:59.515Z,101207.63
2023-03-18T18:37:31.829Z,101213.72
2023-03-18T18:40:05.399Z,101208.44
2023-03-18T18:42:40.913Z,101210.13
2023-03-18T18:45:19.769Z,101217.22
2023-03-18T18:47:51.917Z,101211.84
2023-03-18T18:50:32.595Z,101207.44
2023-03-18T18:53:23.171Z,101212.75
2023-03-18T18:56:02.701Z,101212.69
2023-03-18T18:58:40.489Z,101214.50
2023-03-18T19:01:15.115Z,101217.13
2023-03-18T19:03:50.389Z,101213.72
2023-03-18T19:06:32.234Z,101212.97
2023-03-18T19:09:22.281Z,101213.84
2023-03-18T19:12:27.767Z,101206.91
2023-03-18T19:15:30.507Z,101211.44
2023-03-18T19:18:04.830Z,101212.34
2023-03-18T19:20:43.520Z,101204.56
2023-03-18T19:23:28.092Z,101199.25
2023-03-18T19:26:01.766Z,101201.84
2023-03-18T19:28:59.460Z,101200.13
2023-03-18T19:31:35.298Z,101201.13
2023-03-18T19:34:20.598Z,101205.44
2023-03-18T19:36:56.363Z,101214.19
2023-03-18T19:39:29.169Z,101210.72
2023-03-18T19:42:04.221Z,101210.81
2023-03-18T19:44:37.005Z,101218.78
2023-03-18T19:47:17.700Z,101213.78
2023-03-18T19:49:55.944Z,101220.78
2023-03-18T19:52:30.332Z,101233.94
2023-03-18T19:55:08.371Z,101233.13
2023-03-18T19:57:41.811Z,101235.84
2023-03-18T20:00:25.899Z,101233.19
2023-03-18T20:02:58.516Z,101239.28
2023-03-18T20:05:30.723Z,101238.41
2023-03-18T20:08:02.766Z,101234.03
2023-03-18T20:10:36.646Z,101234.97
2023-03-18T20:13:18.960Z,101237.63
2023-03-18T20:15:51.500Z,101240.31
2023-03-18T20:18:23.835Z,101243.03
2023-03-18T20:20:56.173Z,101244.81
2023-03-18T20:23:30.175Z,101248.41
2023-03-18T20:26:27.338Z,101258.03
2023-03-18T20:29:00.656Z,101260.63
2023-03-18T20:31:33.672Z,101256.31
2023-03-18T20:34:27.370Z,101258.94
2023-03-18T20:36:59.659Z,101255.41
2023-03-18T20:39:32.027Z,101253.72
2023-03-18T20:42:04.615Z,101249.31
2023-03-18T20:44:41.364Z,101244.91
2023-03-18T20:47:26.067Z,101241.38
2023-03-18T20:49:58.205Z,101247.47
2023-03-18T20:52:30.967Z,101250.03
2023-03-18T20:55:20.037Z,101243.91
2023-03-18T20:57:56.868Z,101254.38
2023-03-18T21:00:33.193Z,101250.00
2023-03-18T21:03:34.747Z,101254.38
2023-03-18T21:06:15.153Z,101254.47
2023-03-18T21:08:47.138Z,101253.59
2023-03-18T21:11:30.642Z,101245.75
2023-03-18T21:14:04.646Z,101252.75
2023-03-18T21:16:38.045Z,101256.28
2023-03-18T21:19:18.487Z,101255.44
2023-03-18T21:21:52.883Z,101257.22
2023-03-18T21:24:27.872Z,101254.56
2023-03-18T21:27:05.227Z,101252.03
2023-03-18T21:29:37.634Z,101264.31
2023-03-18T21:32:27.311Z,101249.50
2023-03-18T21:35:00.256Z,101247.06
2023-03-18T21:37:33.768Z,101249.78
2023-03-18T21:40:09.557Z,101248.06
2023-03-18T21:42:42.997Z,101245.47
2023-03-18T21:45:19.135Z,101261.28
2023-03-18T21:47:55.448Z,101256.03
2023-03-18T21:50:27.866Z,101264.84
2023-03-18T21:52:59.902Z,101259.63
2023-03-18T21:55:33.442Z,101261.38
2023-03-18T21:58:26.490Z,101254.41
2023-03-18T22:00:59.806Z,101242.25
2023-03-18T22:03:32.549Z,101245.75
2023-03-18T22:06:08.323Z,101242.28
2023-03-18T22:08:40.442Z,101244.03
2023-03-18T22:11:19.573Z,101246.69
2023-03-18T22:14:04.089Z,101239.69
2023-03-18T22:16:40.232Z,101237.13
2023-03-18T22:19:12.572Z,101238.00
2023-03-18T22:24:40.641Z,101237.16
2023-03-18T22:30:02.580Z,101231.09
2023-03-18T22:32:41.238Z,101230.22
2023-03-18T22:35:19.458Z,101229.38
2023-03-18T22:37:58.242Z,101233.75
2023-03-18T22:40:31.939Z,101233.75
2023-03-18T22:43:04.081Z,101239.00
2023-03-18T22:45:39.061Z,101231.19
2023-03-18T22:48:17.585Z,101232.06
2023-03-18T22:50:49.753Z,101236.41
2023-03-18T22:53:26.061Z,101234.69
2023-03-18T22:56:03.842Z,101235.56
2023-03-18T22:58:36.355Z,101233.81
2023-03-18T23:01:17.558Z,101233.81
2023-03-18T23:03:50.537Z,101231.19
2023-03-18T23:06:27.247Z,101230.31
2023-03-18T23:08:59.486Z,101225.06
2023-03-18T23:11:31.582Z,101231.19
2023-03-18T23:14:04.322Z,101231.19
2023-03-18T23:16:36.620Z,101221.59
2023-03-18T23:19:08.794Z,101225.09
2023-03-18T23:21:41.055Z,101225.97
2023-03-18T23:24:15.454Z,101223.34
2023-03-18T23:26:47.667Z,101228.59
2023-03-18T23:29:27.063Z,101231.22
2023-03-18T23:31:59.379Z,101228.63
2023-03-18T23:34:31.548Z,101229.50
2023-03-18T23:37:11.417Z,101226.03
2023-03-18T23:39:46.212Z,101223.41
2023-03-18T23:42:20.537Z,101227.78
2023-03-18T23:47:32.732Z,101226.03
2023-03-18T23:50:06.783Z,101228.66
2023-03-18T23:52:56.723Z,101225.16
2023-03-18T23:55:34.846Z,101232.13
2023-03-18T23:58:09.038Z,101224.28
